sensor_id;sensor_type;location;lat;lon;timestamp;pressure;altitude;pressure_sealevel;temperature;humidity
19831;BME280;10076;52.008;4.708;2022-07-29T00:02:20;101785.44;;;19.64;100.00
19831;BME280;10076;52.008;4.708;2022-07-29T00:04:46;101784.88;;;19.61;100.00
19831;BME280;10076;52.008;4.708;2022-07-29T00:07:11;101782.34;;;19.78;100.00
19831;BME280;10076;52.008;4.708;2022-07-29T00:09:36;101786.72;;;19.70;100.00
19831;BME280;10076;52.008;4.708;2022-07-29T00:12:02;101779.13;;;19.56;100.00
19831;BME280;10076;52.008;4.708;2022-07-29T00:14:27;101779.13;;;19.56;100.00
19831;BME280;10076;52.008;4.708;2022-07-29T00:16:53;101781.22;;;19.62;100.00
19831;BME280;10076;52.008;4.708;2022-07-29T00:19:19;101775.03;;;19.52;100.00
19831;BME280;10076;52.008;4.708;2022-07-29T00:21:44;101771.38;;;19.43;100.00
19831;BME280;10076;52.008;4.708;2022-07-29T00:24:09;101769.94;;;19.49;100.00
19831;BME280;10076;52.008;4.708;2022-07-29T00:26:35;101770.09;;;19.66;100.00
19831;BME280;10076;52.008;4.708;2022-07-29T00:29:03;101766.53;;;19.75;100.00
19831;BME280;10076;52.008;4.708;2022-07-29T00:31:28;101762.72;;;19.59;100.00
19831;BME280;10076;52.008;4.708;2022-07-29T00:33:54;101766.53;;;19.56;100.00
19831;BME280;10076;52.008;4.708;2022-07-29T00:36:19;101759.78;;;19.62;100.00
19831;BME280;10076;52.008;4.708;2022-07-29T00:38:47;101757.13;;;19.43;100.00
19831;BME280;10076;52.008;4.708;2022-07-29T00:41:12;101752.63;;;19.43;100.00
19831;BME280;10076;52.008;4.708;2022-07-29T00:43:37;101758.50;;;19.47;100.00
19831;BME280;10076;52.008;4.708;2022-07-29T00:46:03;101761.50;;;19.35;100.00
19831;BME280;10076;52.008;4.708;2022-07-29T00:48:28;101755.97;;;19.45;100.00
19831;BME280;10076;52.008;4.708;2022-07-29T00:50:55;101758.97;;;19.42;100.00
19831;BME280;10076;52.008;4.708;2022-07-29T00:53:22;101754.72;;;19.49;100.00
19831;BME280;10076;52.008;4.708;2022-07-29T00:55:48;101754.03;;;19.47;100.00
19831;BME280;10076;52.008;4.708;2022-07-29T00:58:13;101747.69;;;19.39;100.00
19831;BME280;10076;52.008;4.708;2022-07-29T01:00:39;101752.06;;;19.21;100.00
19831;BME280;10076;52.008;4.708;2022-07-29T01:03:06;101749.66;;;19.37;100.00
19831;BME280;10076;52.008;4.708;2022-07-29T01:05:31;101747.69;;;19.30;100.00
19831;BME280;10076;52.008;4.708;2022-07-29T01:07:57;101752.22;;;19.29;100.00
19831;BME280;10076;52.008;4.708;2022-07-29T01:10:24;101753.03;;;19.30;100.00
19831;BME280;10076;52.008;4.708;2022-07-29T01:12:51;101750.47;;;19.47;100.00
19831;BME280;10076;52.008;4.708;2022-07-29T01:15:17;101745.56;;;19.42;100.00
19831;BME280;10076;52.008;4.708;2022-07-29T01:17:49;101742.47;;;19.38;100.00
19831;BME280;10076;52.008;4.708;2022-07-29T01:20:31;101745.28;;;19.36;100.00
19831;BME280;10076;52.008;4.708;2022-07-29T01:30:41;101747.13;;;19.26;100.00
19831;BME280;10076;52.008;4.708;2022-07-29T01:33:11;101746.69;;;19.21;100.00
19831;BME280;10076;52.008;4.708;2022-07-29T01:36:01;101744.59;;;19.15;100.00
19831;BME280;10076;52.008;4.708;2022-07-29T01:38:29;101740.22;;;19.33;100.00
19831;BME280;10076;52.008;4.708;2022-07-29T01:41:03;101736.41;;;19.36;100.00
19831;BME280;10076;52.008;4.708;2022-07-29T01:44:00;101743.19;;;19.21;100.00
19831;BME280;10076;52.008;4.708;2022-07-29T01:46:38;101747.38;;;19.04;100.00
19831;BME280;10076;52.008;4.708;2022-07-29T01:49:17;101738.66;;;19.21;100.00
19831;BME280;10076;52.008;4.708;2022-07-29T01:51:48;101741.75;;;19.17;100.00
19831;BME280;10076;52.008;4.708;2022-07-29T01:54:19;101735.84;;;19.13;100.00
19831;BME280;10076;52.008;4.708;2022-07-29T01:56:48;101735.28;;;19.19;100.00
19831;BME280;10076;52.008;4.708;2022-07-29T01:59:15;101729.66;;;19.32;100.00
19831;BME280;10076;52.008;4.708;2022-07-29T02:01:43;101736.41;;;19.26;100.00
19831;BME280;10076;52.008;4.708;2022-07-29T02:04:11;101733.00;;;19.34;100.00
19831;BME280;10076;52.008;4.708;2022-07-29T02:06:40;101732.59;;;19.19;100.00
19831;BME280;10076;52.008;4.708;2022-07-29T02:09:09;101724.28;;;19.22;100.00
19831;BME280;10076;52.008;4.708;2022-07-29T02:11:37;101721.19;;;19.17;100.00
19831;BME280;10076;52.008;4.708;2022-07-29T02:14:04;101724.81;;;19.07;100.00
19831;BME280;10076;52.008;4.708;2022-07-29T02:16:31;101725.66;;;19.07;100.00
19831;BME280;10076;52.008;4.708;2022-07-29T02:19:00;101726.34;;;19.00;100.00
19831;BME280;10076;52.008;4.708;2022-07-29T02:21:26;101720.91;;;19.11;100.00
19831;BME280;10076;52.008;4.708;2022-07-29T02:23:54;101718.31;;;19.00;100.00
19831;BME280;10076;52.008;4.708;2022-07-29T02:26:23;101721.63;;;19.13;100.00
19831;BME280;10076;52.008;4.708;2022-07-29T02:28:51;101723.66;;;18.90;100.00
19831;BME280;10076;52.008;4.708;2022-07-29T02:31:20;101720.31;;;18.88;100.00
19831;BME280;10076;52.008;4.708;2022-07-29T02:33:46;101718.47;;;18.89;100.00
19831;BME280;10076;52.008;4.708;2022-07-29T02:36:13;101719.44;;;18.88;100.00
19831;BME280;10076;52.008;4.708;2022-07-29T02:38:41;101719.84;;;18.83;100.00
19831;BME280;10076;52.008;4.708;2022-07-29T02:44:13;101711.00;;;18.83;100.00
19831;BME280;10076;52.008;4.708;2022-07-29T02:46:45;101714.78;;;18.80;100.00
19831;BME280;10076;52.008;4.708;2022-07-29T02:51:55;101713.22;;;18.69;100.00
19831;BME280;10076;52.008;4.708;2022-07-29T02:54:44;101715.88;;;18.59;100.00
19831;BME280;10076;52.008;4.708;2022-07-29T02:57:16;101715.72;;;18.61;100.00
19831;BME280;10076;52.008;4.708;2022-07-29T02:59:45;101712.94;;;18.62;100.00
19831;BME280;10076;52.008;4.708;2022-07-29T03:02:11;101711.53;;;18.68;100.00
19831;BME280;10076;52.008;4.708;2022-07-29T03:04:39;101707.59;;;18.62;100.00
19831;BME280;10076;52.008;4.708;2022-07-29T03:07:06;101715.19;;;18.57;100.00
19831;BME280;10076;52.008;4.708;2022-07-29T03:09:32;101711.38;;;18.60;100.00
19831;BME280;10076;52.008;4.708;2022-07-29T03:11:59;101713.19;;;18.50;100.00
19831;BME280;10076;52.008;4.708;2022-07-29T03:14:26;101709.41;;;18.62;100.00
19831;BME280;10076;52.008;4.708;2022-07-29T03:16:51;101711.69;;;18.75;100.00
19831;BME280;10076;52.008;4.708;2022-07-29T03:19:18;101708.72;;;18.60;100.00
19831;BME280;10076;52.008;4.708;2022-07-29T03:21:44;101701.09;;;18.55;100.00
19831;BME280;10076;52.008;4.708;2022-07-29T03:24:09;101704.63;;;18.65;100.00
19831;BME280;10076;52.008;4.708;2022-07-29T03:26:34;101699.53;;;18.53;100.00
19831;BME280;10076;52.008;4.708;2022-07-29T03:28:59;101704.56;;;18.46;100.00
19831;BME280;10076;52.008;4.708;2022-07-29T03:31:25;101697.25;;;18.39;100.00
19831;BME280;10076;52.008;4.708;2022-07-29T03:33:50;101695.44;;;18.39;100.00
19831;BME280;10076;52.008;4.708;2022-07-29T03:36:16;101703.44;;;18.49;100.00
19831;BME280;10076;52.008;4.708;2022-07-29T03:38:42;101696.00;;;18.52;100.00
19831;BME280;10076;52.008;4.708;2022-07-29T03:41:10;101690.91;;;18.40;100.00
19831;BME280;10076;52.008;4.708;2022-07-29T03:43:38;101682.28;;;18.27;100.00
19831;BME280;10076;52.008;4.708;2022-07-29T03:46:10;101697.66;;;18.25;100.00
19831;BME280;10076;52.008;4.708;2022-07-29T03:48:38;101692.06;;;18.47;100.00
19831;BME280;10076;52.008;4.708;2022-07-29T03:51:05;101692.03;;;18.37;100.00
19831;BME280;10076;52.008;4.708;2022-07-29T03:53:30;101685.53;;;18.30;100.00
19831;BME280;10076;52.008;4.708;2022-07-29T03:55:59;101693.41;;;18.22;100.00
19831;BME280;10076;52.008;4.708;2022-07-29T03:58:26;101692.97;;;18.27;100.00
19831;BME280;10076;52.008;4.708;2022-07-29T04:00:54;101694.53;;;18.29;100.00
19831;BME280;10076;52.008;4.708;2022-07-29T04:03:20;101695.69;;;18.36;100.00
19831;BME280;10076;52.008;4.708;2022-07-29T04:05:57;101694.50;;;18.20;100.00
19831;BME280;10076;52.008;4.708;2022-07-29T04:08:23;101697.56;;;18.15;100.00
19831;BME280;10076;52.008;4.708;2022-07-29T04:10:48;101696.56;;;18.37;100.00
19831;BME280;10076;52.008;4.708;2022-07-29T04:13:14;101695.38;;;18.20;100.00
19831;BME280;10076;52.008;4.708;2022-07-29T04:15:39;101699.88;;;18.29;100.00
19831;BME280;10076;52.008;4.708;2022-07-29T04:18:04;101698.25;;;18.47;100.00
19831;BME280;10076;52.008;4.708;2022-07-29T04:20:30;101701.88;;;18.27;100.00
19831;BME280;10076;52.008;4.708;2022-07-29T04:22:56;101704.84;;;18.34;100.00
19831;BME280;10076;52.008;4.708;2022-07-29T04:25:21;101702.22;;;18.53;100.00
19831;BME280;10076;52.008;4.708;2022-07-29T04:27:46;101708.13;;;18.47;100.00
19831;BME280;10076;52.008;4.708;2022-07-29T04:30:27;101700.25;;;18.45;100.00
19831;BME280;10076;52.008;4.708;2022-07-29T04:32:53;101705.59;;;18.55;100.00
19831;BME280;10076;52.008;4.708;2022-07-29T04:35:19;101707.31;;;18.65;100.00
19831;BME280;10076;52.008;4.708;2022-07-29T04:37:44;101701.38;;;18.43;100.00
19831;BME280;10076;52.008;4.708;2022-07-29T04:40:10;101701.91;;;18.37;100.00
19831;BME280;10076;52.008;4.708;2022-07-29T04:42:35;101702.75;;;18.37;100.00
19831;BME280;10076;52.008;4.708;2022-07-29T04:45:00;101709.38;;;18.43;100.00
19831;BME280;10076;52.008;4.708;2022-07-29T04:47:26;101710.66;;;18.48;100.00
19831;BME280;10076;52.008;4.708;2022-07-29T04:49:51;101709.28;;;18.54;100.00
19831;BME280;10076;52.008;4.708;2022-07-29T04:52:16;101714.81;;;18.32;100.00
19831;BME280;10076;52.008;4.708;2022-07-29T04:54:42;101706.22;;;18.28;100.00
19831;BME280;10076;52.008;4.708;2022-07-29T04:57:07;101713.97;;;18.31;100.00
19831;BME280;10076;52.008;4.708;2022-07-29T04:59:32;101703.13;;;18.33;100.00
19831;BME280;10076;52.008;4.708;2022-07-29T05:01:57;101699.53;;;18.43;100.00
19831;BME280;10076;52.008;4.708;2022-07-29T05:04:23;101701.03;;;18.36;100.00
19831;BME280;10076;52.008;4.708;2022-07-29T05:06:48;101696.81;;;18.34;100.00
19831;BME280;10076;52.008;4.708;2022-07-29T05:09:13;101697.41;;;18.47;100.00
19831;BME280;10076;52.008;4.708;2022-07-29T05:11:39;101704.59;;;18.37;100.00
19831;BME280;10076;52.008;4.708;2022-07-29T05:14:04;101697.97;;;18.41;100.00
19831;BME280;10076;52.008;4.708;2022-07-29T05:16:30;101704.72;;;18.45;100.00
19831;BME280;10076;52.008;4.708;2022-07-29T05:18:55;101699.97;;;18.58;100.00
19831;BME280;10076;52.008;4.708;2022-07-29T05:21:20;101704.47;;;18.48;100.00
19831;BME280;10076;52.008;4.708;2022-07-29T05:23:45;101707.13;;;18.48;100.00
19831;BME280;10076;52.008;4.708;2022-07-29T05:26:11;101707.38;;;18.35;100.00
19831;BME280;10076;52.008;4.708;2022-07-29T05:28:37;101708.78;;;18.30;100.00
19831;BME280;10076;52.008;4.708;2022-07-29T05:31:02;101715.13;;;18.38;100.00
19831;BME280;10076;52.008;4.708;2022-07-29T05:33:28;101713.34;;;18.58;100.00
19831;BME280;10076;52.008;4.708;2022-07-29T05:35:53;101723.31;;;18.56;100.00
19831;BME280;10076;52.008;4.708;2022-07-29T05:38:19;101713.34;;;18.58;100.00
19831;BME280;10076;52.008;4.708;2022-07-29T05:40:44;101721.97;;;18.71;100.00
19831;BME280;10076;52.008;4.708;2022-07-29T05:43:09;101729.03;;;18.72;100.00
19831;BME280;10076;52.008;4.708;2022-07-29T05:45:34;101729.56;;;18.75;100.00
19831;BME280;10076;52.008;4.708;2022-07-29T05:48:00;101721.41;;;18.95;100.00
19831;BME280;10076;52.008;4.708;2022-07-29T05:50:25;101727.75;;;19.04;100.00
19831;BME280;10076;52.008;4.708;2022-07-29T05:52:50;101726.41;;;19.28;100.00
19831;BME280;10076;52.008;4.708;2022-07-29T05:55:15;101718.94;;;19.22;100.00
19831;BME280;10076;52.008;4.708;2022-07-29T05:57:41;101722.84;;;19.37;100.00
19831;BME280;10076;52.008;4.708;2022-07-29T06:00:09;101722.84;;;19.56;100.00
19831;BME280;10076;52.008;4.708;2022-07-29T06:02:34;101722.13;;;19.63;100.00
19831;BME280;10076;52.008;4.708;2022-07-29T06:04:59;101733.50;;;19.84;100.00
19831;BME280;10076;52.008;4.708;2022-07-29T06:07:25;101738.41;;;19.98;100.00
19831;BME280;10076;52.008;4.708;2022-07-29T06:09:50;101729.44;;;20.16;100.00
19831;BME280;10076;52.008;4.708;2022-07-29T06:12:15;101738.56;;;20.33;100.00
19831;BME280;10076;52.008;4.708;2022-07-29T06:14:40;101739.16;;;20.27;100.00
19831;BME280;10076;52.008;4.708;2022-07-29T06:17:06;101738.16;;;20.28;100.00
19831;BME280;10076;52.008;4.708;2022-07-29T06:19:34;101735.13;;;20.40;100.00
19831;BME280;10076;52.008;4.708;2022-07-29T06:21:59;101732.72;;;20.47;100.00
19831;BME280;10076;52.008;4.708;2022-07-29T06:24:24;101736.47;;;20.54;100.00
19831;BME280;10076;52.008;4.708;2022-07-29T06:26:50;101740.50;;;20.67;100.00
19831;BME280;10076;52.008;4.708;2022-07-29T06:29:15;101742.53;;;20.83;100.00
19831;BME280;10076;52.008;4.708;2022-07-29T06:31:40;101739.56;;;21.03;100.00
19831;BME280;10076;52.008;4.708;2022-07-29T06:34:06;101747.31;;;21.41;100.00
19831;BME280;10076;52.008;4.708;2022-07-29T06:36:35;101743.31;;;21.45;100.00
19831;BME280;10076;52.008;4.708;2022-07-29T06:39:04;101743.09;;;21.38;100.00
19831;BME280;10076;52.008;4.708;2022-07-29T06:41:29;101744.72;;;21.31;100.00
19831;BME280;10076;52.008;4.708;2022-07-29T06:43:54;101741.84;;;21.50;100.00
19831;BME280;10076;52.008;4.708;2022-07-29T06:46:21;101748.00;;;21.60;100.00
19831;BME280;10076;52.008;4.708;2022-07-29T06:48:47;101743.91;;;21.73;100.00
19831;BME280;10076;52.008;4.708;2022-07-29T06:51:12;101752.03;;;21.81;100.00
19831;BME280;10076;52.008;4.708;2022-07-29T06:53:38;101747.28;;;22.01;100.00
19831;BME280;10076;52.008;4.708;2022-07-29T06:56:05;101753.19;;;21.79;100.00
19831;BME280;10076;52.008;4.708;2022-07-29T06:58:33;101759.41;;;21.79;100.00
19831;BME280;10076;52.008;4.708;2022-07-29T07:01:01;101759.13;;;21.48;100.00
19831;BME280;10076;52.008;4.708;2022-07-29T07:03:27;101761.91;;;21.55;100.00
19831;BME280;10076;52.008;4.708;2022-07-29T07:05:53;101760.75;;;21.58;100.00
19831;BME280;10076;52.008;4.708;2022-07-29T07:08:19;101761.03;;;21.38;100.00
19831;BME280;10076;52.008;4.708;2022-07-29T07:10:45;101758.16;;;21.31;100.00
19831;BME280;10076;52.008;4.708;2022-07-29T07:13:11;101769.19;;;21.46;100.00
19831;BME280;10076;52.008;4.708;2022-07-29T07:15:36;101776.50;;;21.53;100.00
19831;BME280;10076;52.008;4.708;2022-07-29T07:18:03;101775.16;;;21.74;100.00
19831;BME280;10076;52.008;4.708;2022-07-29T07:20:29;101782.31;;;21.83;100.00
19831;BME280;10076;52.008;4.708;2022-07-29T07:22:54;101780.19;;;21.95;100.00
19831;BME280;10076;52.008;4.708;2022-07-29T07:25:19;101780.25;;;22.03;100.00
19831;BME280;10076;52.008;4.708;2022-07-29T07:27:45;101785.00;;;22.09;100.00
19831;BME280;10076;52.008;4.708;2022-07-29T07:30:10;101784.16;;;22.08;100.00
19831;BME280;10076;52.008;4.708;2022-07-29T07:32:36;101785.03;;;22.17;100.00
19831;BME280;10076;52.008;4.708;2022-07-29T07:35:02;101789.53;;;22.08;100.00
19831;BME280;10076;52.008;4.708;2022-07-29T07:37:28;101783.03;;;22.19;100.00
19831;BME280;10076;52.008;4.708;2022-07-29T07:39:53;101780.16;;;22.37;100.00
19831;BME280;10076;52.008;4.708;2022-07-29T07:42:19;101790.44;;;22.42;100.00
19831;BME280;10076;52.008;4.708;2022-07-29T07:44:44;101779.47;;;22.77;100.00
19831;BME280;10076;52.008;4.708;2022-07-29T07:47:11;101784.84;;;22.77;100.00
19831;BME280;10076;52.008;4.708;2022-07-29T07:49:37;101788.53;;;23.09;100.00
19831;BME280;10076;52.008;4.708;2022-07-29T07:52:02;101793.25;;;23.15;100.00
19831;BME280;10076;52.008;4.708;2022-07-29T07:54:28;101786.22;;;23.30;100.00
19831;BME280;10076;52.008;4.708;2022-07-29T07:56:53;101781.00;;;23.44;100.00
19831;BME280;10076;52.008;4.708;2022-07-29T07:59:18;101780.34;;;23.50;100.00
19831;BME280;10076;52.008;4.708;2022-07-29T08:01:44;101780.84;;;23.69;100.00
19831;BME280;10076;52.008;4.708;2022-07-29T08:04:09;101776.97;;;23.96;100.00
19831;BME280;10076;52.008;4.708;2022-07-29T08:06:34;101773.91;;;23.99;100.00
19831;BME280;10076;52.008;4.708;2022-07-29T08:09:02;101772.56;;;24.03;100.00
19831;BME280;10076;52.008;4.708;2022-07-29T08:11:27;101775.91;;;24.13;100.00
19831;BME280;10076;52.008;4.708;2022-07-29T08:13:53;101770.84;;;24.26;100.00
19831;BME280;10076;52.008;4.708;2022-07-29T08:16:19;101783.66;;;24.16;100.00
19831;BME280;10076;52.008;4.708;2022-07-29T08:18:45;101777.25;;;24.17;100.00
19831;BME280;10076;52.008;4.708;2022-07-29T08:21:11;101780.81;;;24.01;100.00
19831;BME280;10076;52.008;4.708;2022-07-29T08:23:37;101781.00;;;24.00;100.00
19831;BME280;10076;52.008;4.708;2022-07-29T08:26:11;101785.06;;;23.88;100.00
19831;BME280;10076;52.008;4.708;2022-07-29T08:28:38;101773.59;;;23.94;100.00
19831;BME280;10076;52.008;4.708;2022-07-29T08:31:03;101772.91;;;24.08;100.00
19831;BME280;10076;52.008;4.708;2022-07-29T08:33:29;101781.13;;;24.22;100.00
19831;BME280;10076;52.008;4.708;2022-07-29T08:35:54;101782.91;;;24.53;100.00
19831;BME280;10076;52.008;4.708;2022-07-29T08:38:19;101781.84;;;24.62;100.00
19831;BME280;10076;52.008;4.708;2022-07-29T08:40:46;101786.47;;;24.84;100.00
19831;BME280;10076;52.008;4.708;2022-07-29T08:43:11;101792.53;;;24.94;100.00
19831;BME280;10076;52.008;4.708;2022-07-29T08:45:43;101793.66;;;25.08;100.00
19831;BME280;10076;52.008;4.708;2022-07-29T08:48:10;101794.03;;;25.49;100.00
19831;BME280;10076;52.008;4.708;2022-07-29T08:50:37;101791.53;;;25.62;100.00
19831;BME280;10076;52.008;4.708;2022-07-29T08:53:03;101796.41;;;25.75;100.00
19831;BME280;10076;52.008;4.708;2022-07-29T08:55:29;101795.97;;;25.85;100.00
19831;BME280;10076;52.008;4.708;2022-07-29T08:57:55;101796.19;;;25.98;100.00
19831;BME280;10076;52.008;4.708;2022-07-29T09:00:22;101795.47;;;26.33;100.00
19831;BME280;10076;52.008;4.708;2022-07-29T09:02:51;101793.63;;;26.48;100.00
19831;BME280;10076;52.008;4.708;2022-07-29T09:05:22;101782.03;;;26.68;100.00
19831;BME280;10076;52.008;4.708;2022-07-29T09:07:49;101790.13;;;26.83;100.00
19831;BME280;10076;52.008;4.708;2022-07-29T09:10:15;101791.31;;;26.95;100.00
19831;BME280;10076;52.008;4.708;2022-07-29T09:12:40;101788.81;;;26.93;100.00
19831;BME280;10076;52.008;4.708;2022-07-29T09:15:06;101785.91;;;26.95;100.00
19831;BME280;10076;52.008;4.708;2022-07-29T09:17:42;101784.56;;;27.20;100.00
19831;BME280;10076;52.008;4.708;2022-07-29T09:20:13;101788.09;;;27.20;100.00
19831;BME280;10076;52.008;4.708;2022-07-29T09:22:38;101787.78;;;27.29;100.00
19831;BME280;10076;52.008;4.708;2022-07-29T09:25:04;101783.03;;;27.31;100.00
19831;BME280;10076;52.008;4.708;2022-07-29T09:27:29;101781.06;;;27.46;100.00
19831;BME280;10076;52.008;4.708;2022-07-29T09:29:59;101778.63;;;27.30;100.00
19831;BME280;10076;52.008;4.708;2022-07-29T09:32:25;101779.03;;;27.48;100.00
19831;BME280;10076;52.008;4.708;2022-07-29T09:35:18;101780.72;;;27.97;99.11
19831;BME280;10076;52.008;4.708;2022-07-29T09:37:44;101787.22;;;28.24;98.03
19831;BME280;10076;52.008;4.708;2022-07-29T09:40:12;101782.84;;;28.29;97.22
19831;BME280;10076;52.008;4.708;2022-07-29T09:42:37;101790.88;;;28.37;96.63
19831;BME280;10076;52.008;4.708;2022-07-29T09:45:03;101789.66;;;28.46;98.26
19831;BME280;10076;52.008;4.708;2022-07-29T09:47:41;101789.25;;;28.89;98.60
19831;BME280;10076;52.008;4.708;2022-07-29T09:50:07;101791.00;;;29.03;97.15
19831;BME280;10076;52.008;4.708;2022-07-29T09:52:44;101786.97;;;29.72;94.33
19831;BME280;10076;52.008;4.708;2022-07-29T09:55:10;101793.13;;;30.82;86.95
19831;BME280;10076;52.008;4.708;2022-07-29T09:57:35;101792.53;;;31.85;81.62
19831;BME280;10076;52.008;4.708;2022-07-29T10:00:05;101790.88;;;32.87;78.34
19831;BME280;10076;52.008;4.708;2022-07-29T10:02:33;101795.34;;;33.98;72.64
19831;BME280;10076;52.008;4.708;2022-07-29T10:05:00;101799.38;;;35.43;67.80
19831;BME280;10076;52.008;4.708;2022-07-29T10:07:43;101803.00;;;36.58;61.28
19831;BME280;10076;52.008;4.708;2022-07-29T10:10:08;101795.44;;;36.70;58.17
19831;BME280;10076;52.008;4.708;2022-07-29T10:12:33;101793.22;;;37.89;56.94
19831;BME280;10076;52.008;4.708;2022-07-29T10:15:01;101795.59;;;38.48;53.70
19831;BME280;10076;52.008;4.708;2022-07-29T10:17:26;101802.25;;;39.03;51.95
19831;BME280;10076;52.008;4.708;2022-07-29T10:19:53;101798.81;;;39.47;48.56
19831;BME280;10076;52.008;4.708;2022-07-29T10:22:18;101802.19;;;40.04;48.20
19831;BME280;10076;52.008;4.708;2022-07-29T10:24:44;101802.69;;;40.35;43.83
19831;BME280;10076;52.008;4.708;2022-07-29T10:27:09;101796.50;;;40.73;43.11
19831;BME280;10076;52.008;4.708;2022-07-29T10:29:35;101801.13;;;41.84;41.40
19831;BME280;10076;52.008;4.708;2022-07-29T10:32:15;101800.06;;;42.42;40.45
19831;BME280;10076;52.008;4.708;2022-07-29T10:37:53;101801.41;;;43.32;37.74
19831;BME280;10076;52.008;4.708;2022-07-29T10:43:27;101798.41;;;44.29;36.18
19831;BME280;10076;52.008;4.708;2022-07-29T10:45:58;101791.72;;;44.97;35.02
19831;BME280;10076;52.008;4.708;2022-07-29T10:48:24;101789.03;;;45.76;34.35
19831;BME280;10076;52.008;4.708;2022-07-29T10:53:18;101787.03;;;47.15;32.67
19831;BME280;10076;52.008;4.708;2022-07-29T10:55:44;101787.38;;;47.72;32.17
19831;BME280;10076;52.008;4.708;2022-07-29T10:58:21;101787.03;;;47.99;30.98
19831;BME280;10076;52.008;4.708;2022-07-29T11:00:53;101788.78;;;48.29;30.34
19831;BME280;10076;52.008;4.708;2022-07-29T11:06:06;101774.22;;;48.35;29.93
19831;BME280;10076;52.008;4.708;2022-07-29T11:08:31;101777.00;;;48.73;29.57
19831;BME280;10076;52.008;4.708;2022-07-29T11:13:51;101762.44;;;48.88;28.40
19831;BME280;10076;52.008;4.708;2022-07-29T11:16:18;101766.50;;;49.39;28.48
19831;BME280;10076;52.008;4.708;2022-07-29T11:21:39;101765.97;;;48.97;29.07
19831;BME280;10076;52.008;4.708;2022-07-29T11:24:25;101759.84;;;49.23;28.53
19831;BME280;10076;52.008;4.708;2022-07-29T11:27:18;101752.38;;;49.07;27.72
19831;BME280;10076;52.008;4.708;2022-07-29T11:29:55;101756.59;;;50.30;27.63
19831;BME280;10076;52.008;4.708;2022-07-29T11:32:23;101765.78;;;50.51;27.18
19831;BME280;10076;52.008;4.708;2022-07-29T11:34:49;101765.66;;;50.59;26.52
19831;BME280;10076;52.008;4.708;2022-07-29T11:37:34;101767.31;;;51.63;26.30
19831;BME280;10076;52.008;4.708;2022-07-29T11:47:23;101768.47;;;53.16;25.16
19831;BME280;10076;52.008;4.708;2022-07-29T11:49:50;101763.13;;;53.11;24.39
19831;BME280;10076;52.008;4.708;2022-07-29T11:52:17;101762.41;;;53.52;24.38
19831;BME280;10076;52.008;4.708;2022-07-29T11:54:42;101769.25;;;53.32;23.29
19831;BME280;10076;52.008;4.708;2022-07-29T11:57:08;101770.63;;;53.98;23.33
19831;BME280;10076;52.008;4.708;2022-07-29T11:59:40;101771.50;;;53.42;22.76
19831;BME280;10076;52.008;4.708;2022-07-29T12:02:10;101764.47;;;51.90;23.60
19831;BME280;10076;52.008;4.708;2022-07-29T12:04:52;101764.81;;;51.46;24.13
19831;BME280;10076;52.008;4.708;2022-07-29T12:07:18;101764.16;;;52.22;23.41
19831;BME280;10076;52.008;4.708;2022-07-29T12:09:50;101763.03;;;53.07;23.14
19831;BME280;10076;52.008;4.708;2022-07-29T12:12:17;101755.84;;;53.29;22.84
19831;BME280;10076;52.008;4.708;2022-07-29T12:14:42;101765.00;;;53.22;23.11
19831;BME280;10076;52.008;4.708;2022-07-29T12:17:31;101764.41;;;53.92;22.59
19831;BME280;10076;52.008;4.708;2022-07-29T12:19:58;101766.25;;;54.71;22.37
19831;BME280;10076;52.008;4.708;2022-07-29T12:22:32;101770.25;;;55.21;21.39
19831;BME280;10076;52.008;4.708;2022-07-29T12:25:04;101770.88;;;55.41;21.42
19831;BME280;10076;52.008;4.708;2022-07-29T12:27:30;101768.13;;;55.81;21.74
19831;BME280;10076;52.008;4.708;2022-07-29T12:29:57;101770.00;;;55.33;21.33
19831;BME280;10076;52.008;4.708;2022-07-29T12:32:23;101760.75;;;55.10;21.42
19831;BME280;10076;52.008;4.708;2022-07-29T12:34:49;101759.47;;;55.05;20.82
19831;BME280;10076;52.008;4.708;2022-07-29T12:37:16;101770.75;;;55.30;20.98
19831;BME280;10076;52.008;4.708;2022-07-29T12:39:41;101762.47;;;56.24;20.49
19831;BME280;10076;52.008;4.708;2022-07-29T12:42:11;101764.56;;;56.27;19.76
19831;BME280;10076;52.008;4.708;2022-07-29T12:44:49;101768.72;;;56.00;19.83
19831;BME280;10076;52.008;4.708;2022-07-29T12:47:15;101762.63;;;54.26;20.72
19831;BME280;10076;52.008;4.708;2022-07-29T12:49:43;101750.44;;;52.86;20.81
19831;BME280;10076;52.008;4.708;2022-07-29T12:54:53;101751.13;;;52.33;20.81
19831;BME280;10076;52.008;4.708;2022-07-29T12:57:18;101738.38;;;49.60;22.09
19831;BME280;10076;52.008;4.708;2022-07-29T12:59:44;101736.81;;;47.18;23.26
19831;BME280;10076;52.008;4.708;2022-07-29T13:02:22;101729.41;;;45.02;24.76
19831;BME280;10076;52.008;4.708;2022-07-29T13:05:07;101730.72;;;43.97;25.42
19831;BME280;10076;52.008;4.708;2022-07-29T13:07:34;101721.47;;;43.19;26.59
19831;BME280;10076;52.008;4.708;2022-07-29T13:10:17;101721.03;;;41.68;27.67
19831;BME280;10076;52.008;4.708;2022-07-29T13:15:30;101707.13;;;38.23;32.14
19831;BME280;10076;52.008;4.708;2022-07-29T13:17:56;101707.97;;;36.56;33.94
19831;BME280;10076;52.008;4.708;2022-07-29T13:20:25;101708.22;;;35.79;35.36
19831;BME280;10076;52.008;4.708;2022-07-29T13:22:52;101715.25;;;35.25;37.31
19831;BME280;10076;52.008;4.708;2022-07-29T13:25:26;101718.56;;;35.11;38.86
19831;BME280;10076;52.008;4.708;2022-07-29T13:27:51;101712.50;;;35.25;39.32
19831;BME280;10076;52.008;4.708;2022-07-29T13:30:19;101718.41;;;35.17;40.10